Flight Track Log - Related Links

Times and Time Zones

All times are in EST time to prevent confusion due to time zone crossing. See the UAL202 flight status page for this flight to view local times or setup timezone preferences in your user account.

Time Position Orientation Groundspeed Altitude Reporting Facility
EST Latitude Longitude Course Direction KTS MPH feet Rate Location/Type
Mon 05:29:10 PM 38.8833 -77.0667 270° West 184 212 2,100  Level Potomac TRACON
Mon 05:30:10 PM 38.9333 -77.1167 322° Northwest 225 259 4,800 2,950 Climbing Potomac TRACON
Mon 05:31:00 PM 38.9128 -77.4254 270° West  Level Estimated
Mon 05:31:10 PM 38.9833 -77.1833 314° West 247 284 8,000  Level Potomac TRACON
Mon 05:32:00 PM 38.9327 -77.5548 274° West  Level Estimated
Mon 05:32:10 PM 38.9833 -77.2667 270° West 247 284 10,800  Level Potomac TRACON
Mon 05:33:00 PM 38.9373 -77.6866 273° West  Level FlightAware Approximate
Mon 05:33:10 PM 38.9667 -77.3833 260° West 300 345 13,200  Level Potomac TRACON
Mon 05:34:00 PM 38.9571 -77.8161 270° West  Level Estimated
Mon 05:34:10 PM 38.9667 -77.4667 270° West 263 303 16,400  Level Potomac TRACON
Mon 05:35:10 PM 38.9500 -77.5667 258° West 261 300 17,000 279 Climbing Potomac TRACON
Mon 05:36:19 PM 38.9436 -77.6628 265° West 248 285 17,000  Level Washington Center
Mon 05:37:20 PM 38.9442 -77.7456 271° West 253 291 17,000  Level Washington Center
Mon 05:38:18 PM 38.9506 -77.8472 275° West 253 291 17,000  Level Washington Center
Mon 05:39:18 PM 38.9508 -77.9458 270° West 274 315 17,000 1,339 Level Washington Center
Mon 05:40:19 PM 38.9547 -78.0608 273° West 310 357 19,700 2,331 Climbing Washington Center
Mon 05:41:19 PM 38.9586 -78.1783 272° West 320 368 21,700 2,118 Climbing Washington Center
Mon 05:42:18 PM 38.9622 -78.2986 272° West 332 382 23,900 1,950 Climbing Washington Center
Mon 05:43:19 PM 38.9675 -78.4244 273° West 342 394 25,600 1,525 Climbing Washington Center
Mon 05:44:20 PM 38.9708 -78.5528 272° West 355 409 27,000 1,210 Climbing Washington Center
Mon 05:45:18 PM 38.9758 -78.6864 273° West 367 422 28,000 1,160 Climbing Washington Center
Mon 05:46:19 PM 38.9781 -78.8358 271° West 381 438 29,300 1,983 Climbing Washington Center
Mon 05:47:19 PM 38.9811 -78.9564 272° West 381 438 32,000 1,339 Climbing Washington Center
Mon 05:48:20 PM 38.9858 -79.0794 273° West 369 425 32,000  Level Washington Center
Mon 05:49:18 PM 38.9883 -79.2078 271° West 364 419 32,000  Level Washington Center
Mon 05:50:19 PM 38.9906 -79.3386 271° West 364 419 32,000  Level Washington Center
Mon 05:51:20 PM 38.9969 -79.4697 274° West 364 419 32,000  Level Washington Center
Mon 05:52:20 PM 39.0003 -79.6197 272° West 375 432 32,000  Level Washington Center
Mon 05:53:20 PM 39.0019 -79.7533 271° West 381 438 32,000  Level Washington Center
Mon 05:54:18 PM 39.0042 -79.8711 271° West 381 438 32,000  Level Washington Center
Mon 05:55:07 PM 39.0033 -79.9736 269° West 377 434 32,000  Level Indianapolis Center
Mon 05:56:09 PM 39.0053 -80.1236 271° West 377 434 32,000  Level Indianapolis Center
Mon 05:57:11 PM 39.0086 -80.2581 272° West 376 433 32,000  Level Indianapolis Center
Mon 05:58:13 PM 39.0103 -80.3936 271° West 379 436 32,000  Level Indianapolis Center
Mon 05:59:15 PM 39.0381 -80.5225 286° West 381 438 32,000  Level Indianapolis Center
Mon 06:00:17 PM 39.0917 -80.6425 300° West 385 443 32,000  Level Indianapolis Center
Mon 06:01:19 PM 39.1539 -80.7881 299° West 387 445 32,000  Level Indianapolis Center
Mon 06:02:21 PM 39.1986 -80.9119 295° West 384 442 32,000  Level Indianapolis Center
Mon 06:03:23 PM 39.2444 -81.0353 296° West 383 441 32,000  Level Indianapolis Center
Mon 06:04:25 PM 39.2906 -81.1606 295° West 386 444 32,000  Level Indianapolis Center
Mon 06:05:27 PM 39.3358 -81.2844 295° West 384 442 32,000  Level Indianapolis Center
Mon 06:06:29 PM 39.3797 -81.4083 295° West 382 440 32,000  Level Indianapolis Center
Mon 06:07:31 PM 39.4344 -81.5561 296° West 381 438 32,000  Level Indianapolis Center
Mon 06:08:33 PM 39.4792 -81.6803 295° West 381 438 32,000  Level Indianapolis Center
Mon 06:09:35 PM 39.5231 -81.8053 295° West 382 440 32,000  Level Indianapolis Center
Mon 06:10:37 PM 39.5675 -81.9322 294° West 386 444 32,000  Level Indianapolis Center
Mon 06:11:39 PM 39.6111 -82.0558 295° West 382 440 32,000  Level Indianapolis Center
Mon 06:12:42 PM 39.6544 -82.1794 295° West 378 435 32,000  Level Indianapolis Center
Mon 06:13:44 PM 39.7058 -82.3275 294° West 377 434 32,000  Level Indianapolis Center
Mon 06:14:46 PM 39.7497 -82.4517 295° West 377 434 32,000  Level Indianapolis Center
Mon 06:15:48 PM 39.7919 -82.5756 294° West 376 433 32,000  Level Indianapolis Center
Mon 06:16:50 PM 39.8350 -82.6983 295° West 376 433 32,000  Level Indianapolis Center
Mon 06:17:52 PM 39.8778 -82.8219 294° West 376 433 32,000  Level Indianapolis Center
Mon 06:18:54 PM 39.9203 -82.9456 294° West 377 434 32,000  Level Indianapolis Center
Mon 06:19:56 PM 39.9706 -83.0939 294° West 376 433 32,000  Level Indianapolis Center
Mon 06:20:58 PM 40.0131 -83.2164 294° West 375 432 32,000  Level Indianapolis Center
Mon 06:22:00 PM 40.0536 -83.3386 293° West 373 429 32,000  Level Indianapolis Center
Mon 06:23:02 PM 40.0953 -83.4597 294° West 372 428 32,000  Level Indianapolis Center
Mon 06:24:04 PM 40.1444 -83.6061 294° West 372 428 32,000  Level Indianapolis Center
Mon 06:25:06 PM 40.1844 -83.7286 293° West 370 426 32,000  Level Indianapolis Center
Mon 06:26:08 PM 40.2250 -83.8500 294° West 368 423 32,000  Level Indianapolis Center
Mon 06:27:10 PM 40.2653 -83.9722 293° West 367 422 32,000  Level Indianapolis Center
Mon 06:28:12 PM 40.2947 -84.0986 287° West 366 421 32,000  Level Indianapolis Center
Mon 06:29:14 PM 40.3092 -84.2553 277° West 363 418 32,000  Level Indianapolis Center
Mon 06:30:16 PM 40.3211 -84.3856 277° West 363 418 32,000  Level Indianapolis Center
Mon 06:31:19 PM 40.3342 -84.5164 277° West 363 418 32,000  Level Indianapolis Center
Mon 06:32:21 PM 40.3469 -84.6461 277° West 362 417 32,000  Level Indianapolis Center
Mon 06:33:23 PM 40.3600 -84.7781 277° West 365 420 32,000  Level Indianapolis Center
Mon 06:34:25 PM 40.3717 -84.9186 276° West 365 420 32,000  Level Indianapolis Center
Mon 06:35:27 PM 40.3847 -85.0497 277° West 365 420 32,000  Level Indianapolis Center
Mon 06:36:21 PM 40.3964 -85.1794 277° West 365 420 32,000  Level Chicago Center
Mon 06:37:23 PM 40.4086 -85.3097 277° West 364 419 32,000  Level Chicago Center
Mon 06:38:25 PM 40.4208 -85.4406 277° West 363 418 32,000  Level Chicago Center
Mon 06:39:27 PM 40.4328 -85.5708 277° West 363 418 32,000  Level Chicago Center
Mon 06:40:29 PM 40.4458 -85.7289 276° West 366 421 32,000  Level Chicago Center
Mon 06:41:31 PM 40.4569 -85.8606 276° West 367 422 32,000  Level Chicago Center
Mon 06:42:33 PM 40.4692 -85.9925 277° West 367 422 32,000  Level Chicago Center
Mon 06:43:35 PM 40.4797 -86.1247 276° West 368 423 32,000  Level Chicago Center
Mon 06:44:37 PM 40.4906 -86.2575 276° West 369 425 32,000  Level Chicago Center
Mon 06:45:39 PM 40.5031 -86.4169 276° West 369 425 32,000  Level Chicago Center
Mon 06:46:41 PM 40.5139 -86.5494 276° West 369 425 32,000  Level Chicago Center
Mon 06:47:44 PM 40.5250 -86.6792 276° West 362 417 32,000  Level Chicago Center
Mon 06:48:46 PM 40.5364 -86.8111 277° West 364 419 32,000  Level Chicago Center
Mon 06:49:48 PM 40.5469 -86.9444 276° West 368 423 32,000  Level Chicago Center
Mon 06:50:50 PM 40.5619 -87.1031 277° West 370 426 32,000  Level Chicago Center
Mon 06:51:52 PM 40.5956 -87.2306 289° West 370 426 32,000  Level Chicago Center
Mon 06:52:54 PM 40.6264 -87.3600 287° West 371 427 32,000  Level Chicago Center
Mon 06:53:56 PM 40.6392 -87.4978 277° West 377 434 32,000  Level Chicago Center
Mon 06:54:58 PM 40.6522 -87.6339 277° West 376 433 32,000  Level Chicago Center
Mon 06:56:00 PM 40.6675 -87.7978 277° West 376 433 32,000  Level Chicago Center
Mon 06:57:02 PM 40.6781 -87.9311 276° West 371 427 32,000  Level Chicago Center
Mon 06:58:04 PM 40.6886 -88.0678 276° West 373 429 32,000  Level Chicago Center
Mon 06:59:07 PM 40.7008 -88.2028 277° West 372 428 32,000  Level Chicago Center
Mon 07:00:09 PM 40.7114 -88.3403 276° West 377 434 32,000  Level Chicago Center
Mon 07:01:11 PM 40.7208 -88.4772 275° West 376 433 32,000  Level Chicago Center
Mon 07:02:14 PM 40.7342 -88.6411 276° West 375 432 32,000  Level Chicago Center
Mon 07:03:15 PM 40.7450 -88.7792 276° West 379 436 32,000  Level Chicago Center
Mon 07:04:17 PM 40.7536 -88.9078 275° West 383 441 32,000  Level Chicago Center
Mon 07:05:19 PM 40.7633 -89.0472 275° West 383 441 32,000  Level Chicago Center
Mon 07:06:21 PM 40.7761 -89.2136 276° West 381 438 32,000  Level Chicago Center
Mon 07:07:23 PM 40.7853 -89.3508 275° West 379 436 32,000  Level Chicago Center
Mon 07:08:25 PM 40.7947 -89.4886 275° West 380 437 32,000  Level Chicago Center
Mon 07:09:28 PM 40.8047 -89.6356 275° West 378 435 32,000  Level Chicago Center
Mon 07:10:30 PM 40.8150 -89.7717 276° West 376 433 32,000  Level Chicago Center
Mon 07:11:32 PM 40.8244 -89.9092 275° West 376 433 32,000  Level Chicago Center
Mon 07:12:34 PM 40.8314 -90.0461 274° West 376 433 32,000  Level Chicago Center
Mon 07:13:36 PM 40.8431 -90.2117 275° West 377 434 32,000  Level Chicago Center
Mon 07:14:38 PM 40.8508 -90.3336 275° West 381 438 32,000  Level Chicago Center
Mon 07:15:40 PM 40.8617 -90.5025 275° West 384 442 32,000  Level Chicago Center
Mon 07:16:42 PM 40.8694 -90.6428 274° West 385 443 32,000  Level Chicago Center
Mon 07:17:44 PM 40.8767 -90.7831 274° West 385 443 32,000  Level Chicago Center
Mon 07:18:47 PM 40.8853 -90.9258 275° West 389 448 32,000  Level Chicago Center
Mon 07:19:49 PM 40.8936 -91.0664 275° West 386 444 32,000  Level Chicago Center
Mon 07:20:51 PM 40.9011 -91.2072 274° West 386 444 32,000  Level Chicago Center
Mon 07:21:53 PM 40.9097 -91.3689 274° West 387 445 32,000  Level Chicago Center
Mon 07:22:55 PM 40.9172 -91.5094 274° West 386 444 32,000  Level Chicago Center
Mon 07:23:57 PM 40.9247 -91.6503 274° West 388 447 32,000  Level Chicago Center
Mon 07:24:59 PM 40.9314 -91.7894 274° West 386 444 32,000  Level Chicago Center
Mon 07:26:01 PM 40.9386 -91.9583 273° West 387 445 32,000  Level Chicago Center
Mon 07:27:03 PM 40.9453 -92.0981 274° West 386 444 32,000  Level Chicago Center
Mon 07:28:05 PM 40.9519 -92.2389 274° West 387 445 32,000  Level Chicago Center
Mon 07:29:07 PM 40.9583 -92.3797 273° West 388 447 32,000  Level Chicago Center
Mon 07:30:10 PM 40.9650 -92.5475 273° West 387 445 32,000  Level Chicago Center
Mon 07:31:12 PM 40.9719 -92.6881 274° West 389 448 32,000  Level Chicago Center
Mon 07:32:14 PM 40.9767 -92.8292 273° West 389 448 32,000  Level Chicago Center
Mon 07:33:16 PM 40.9819 -92.9717 273° West 392 451 32,000  Level Chicago Center
Mon 07:34:18 PM 40.9892 -93.1136 274° West 392 451 32,000 532 Level Chicago Center
Mon 07:35:20 PM 40.9961 -93.2828 273° West 389 448 33,100 1,258 Climbing Minneapolis Center
Mon 07:36:22 PM 41.0008 -93.4258 273° West 393 452 34,600 1,403 Climbing Minneapolis Center
Mon 07:37:24 PM 41.0056 -93.5667 273° West 390 449 36,000 677 Climbing Minneapolis Center
Mon 07:38:26 PM 41.0092 -93.7022 272° West 379 436 36,000  Level Minneapolis Center
Mon 07:39:27 PM 41.0125 -93.8383 272° West 374 430 36,000  Level Minneapolis Center
Mon 07:40:29 PM 41.0175 -94.0017 272° West 375 432 36,000  Level Minneapolis Center
Mon 07:41:31 PM 41.0206 -94.1406 272° West 378 435 36,000  Level Minneapolis Center
Mon 07:42:33 PM 41.0239 -94.2786 272° West 380 437 36,000  Level Minneapolis Center
Mon 07:43:34 PM 41.0278 -94.4169 272° West 379 436 36,000  Level Minneapolis Center
Mon 07:44:36 PM 41.0311 -94.5742 272° West 379 436 36,000  Level Minneapolis Center
Mon 07:45:38 PM 41.0347 -94.7136 272° West 378 435 36,000  Level Minneapolis Center
Mon 07:46:39 PM 41.0378 -94.8531 272° West 378 435 36,000  Level Minneapolis Center
Mon 07:47:41 PM 41.0403 -94.9919 271° West 377 434 36,000  Level Minneapolis Center
Mon 07:48:43 PM 41.0442 -95.1303 272° West 376 433 36,000  Level Minneapolis Center
Mon 07:49:45 PM 41.0458 -95.2692 271° West 376 433 36,000  Level Minneapolis Center
Mon 07:50:46 PM 41.0492 -95.4086 272° West 377 434 36,000  Level Minneapolis Center
Mon 07:51:48 PM 41.0514 -95.5744 271° West 375 432 36,000  Level Minneapolis Center
Mon 07:52:49 PM 41.0533 -95.7153 271° West 379 436 36,000  Level Minneapolis Center
Mon 07:53:51 PM 41.0550 -95.8564 271° West 380 437 36,000  Level Minneapolis Center
Mon 07:54:53 PM 41.0569 -95.9981 271° West 380 437 36,000  Level Minneapolis Center
Mon 07:55:54 PM 41.0594 -96.1400 271° West 382 440 36,000  Level Minneapolis Center
Mon 07:56:56 PM 41.0611 -96.2814 271° West 382 440 36,000  Level Minneapolis Center
Mon 07:57:57 PM 41.0617 -96.4239 270° West 383 441 36,000  Level Minneapolis Center
Mon 07:59:00 PM 41.0633 -96.5664 271° West 384 442 36,000  Level Minneapolis Center
Mon 08:00:01 PM 41.0644 -96.7075 271° West 384 442 36,000  Level Minneapolis Center
Mon 08:01:03 PM 41.0636 -96.8492 270° West 384 442 36,000  Level Minneapolis Center
Mon 08:02:05 PM 41.0642 -97.0192 270° West 385 443 36,000  Level Minneapolis Center
Mon 08:03:07 PM 41.0644 -97.1603 270° West 383 441 36,000  Level Minneapolis Center
Mon 08:04:08 PM 41.0656 -97.3019 271° West 385 443 36,000  Level Minneapolis Center
Mon 08:05:10 PM 41.0656 -97.4350 270° West 385 443 36,000  Level Minneapolis Center
Mon 08:06:11 PM 41.0661 -97.5761 270° West 385 443 36,000  Level Minneapolis Center
Mon 08:07:13 PM 41.0661 -97.7478 270° West 387 445 36,000  Level Minneapolis Center
Mon 08:08:15 PM 41.0647 -97.8911 269° West 389 448 36,000  Level Minneapolis Center
Mon 08:09:16 PM 41.0647 -98.0342 270° West 388 447 36,000  Level Minneapolis Center
Mon 08:10:18 PM 41.0653 -98.1775 270° West 389 448 36,000  Level Minneapolis Center
Mon 08:11:20 PM 41.0636 -98.3211 269° West 388 447 36,000  Level Minneapolis Center
Mon 08:12:21 PM 41.0486 -98.4711 262° West 389 448 36,000  Level Minneapolis Center
Mon 08:13:23 PM 41.0311 -98.6147 261° West 392 451 36,000  Level Minneapolis Center
Mon 08:14:25 PM 41.0136 -98.7575 261° West 394 453 36,000  Level Minneapolis Center
Mon 08:15:26 PM 40.9964 -98.9006 261° West 395 455 36,000  Level Minneapolis Center
Mon 08:16:28 PM 40.9822 -99.0403 262° West 387 445 36,000  Level Minneapolis Center
Mon 08:17:26 PM 40.9667 -99.1794 262° West 377 434 36,000  Level Denver Center
Mon 08:17:30 PM 40.9667 -99.1794 262° West 376 433 36,000  Level Minneapolis Center
Mon 08:18:28 PM 40.9517 -99.3156 262° West 375 432 36,000  Level Denver Center
Mon 08:19:30 PM 40.9358 -99.4511 261° West 373 429 36,000  Level Denver Center
Mon 08:20:32 PM 40.9167 -99.6153 261° West 375 432 36,000  Level Denver Center
Mon 08:21:34 PM 40.9000 -99.7511 261° West 375 432 36,000  Level Denver Center
Mon 08:22:36 PM 40.8842 -99.8814 261° West 376 433 36,000  Level Denver Center
Mon 08:23:38 PM 40.8611 -100.0378 259° West 385 443 36,000  Level Denver Center
Mon 08:24:40 PM 40.8389 -100.1761 258° West 399 459 36,000  Level Denver Center
Mon 08:25:42 PM 40.8142 -100.3386 259° West 405 466 36,000  Level Denver Center
Mon 08:26:43 PM 40.7928 -100.4769 259° West 402 463 36,000  Level Denver Center
Mon 08:27:45 PM 40.7700 -100.6156 258° West 401 461 36,000  Level Denver Center
Mon 08:28:47 PM 40.7414 -100.7831 257° West 407 468 36,000  Level Denver Center
Mon 08:29:49 PM 40.7192 -100.9250 258° West 407 468 36,000  Level Denver Center
Mon 08:30:50 PM 40.6967 -101.0647 258° West 407 468 36,000  Level Denver Center
Mon 08:31:52 PM 40.6703 -101.2267 258° West 406 467 36,000  Level Denver Center
Mon 08:32:54 PM 40.6472 -101.3672 258° West 409 471 36,000  Level Denver Center
Mon 08:33:56 PM 40.6194 -101.5303 257° West 410 472 36,000  Level Denver Center
Mon 08:34:57 PM 40.5964 -101.6706 258° West 411 473 36,000  Level Denver Center
Mon 08:35:59 PM 40.5689 -101.8344 258° West 411 473 36,000  Level Denver Center
Mon 08:37:01 PM 40.5453 -101.9731 257° West 406 467 36,000 -146 Level Denver Center
Mon 08:38:02 PM 40.5219 -102.1050 257° West 388 447 35,700 -878 Descending Denver Center
Mon 08:39:04 PM 40.4950 -102.2528 257° West 375 432 34,200 -823 Descending Denver Center
Mon 08:40:06 PM 40.4725 -102.3778 257° West 368 423 34,000 -97 Descending Denver Center
Mon 08:41:08 PM 40.4472 -102.5236 257° West 368 423 34,000  Level Denver Center
Mon 08:42:09 PM 40.4247 -102.6481 257° West 367 422 34,000  Level Denver Center
Mon 08:43:11 PM 40.3992 -102.7839 256° West 370 426 34,000 -290 Level Denver Center
Mon 08:44:13 PM 40.3758 -102.9158 257° West 372 428 33,400 -1,220 Descending Denver Center
Mon 08:45:14 PM 40.3528 -103.0439 257° West 366 421 31,500 -1,854 Descending Denver Center
Mon 08:46:16 PM 40.3300 -103.1703 257° West 357 411 29,600 -1,805 Descending Denver Center
Mon 08:47:17 PM 40.3081 -103.2947 257° West 353 406 27,800 -2,000 Descending Denver Center
Mon 08:48:19 PM 40.2806 -103.4411 256° West 347 399 25,500 -2,032 Descending Denver Center
Mon 08:49:21 PM 40.2581 -103.5608 256° West 341 392 23,600 -1,805 Descending Denver Center
Mon 08:50:22 PM 40.2350 -103.6775 256° West 333 383 21,800 -1,854 Descending Denver Center
Mon 08:51:24 PM 40.2136 -103.7972 257° West 332 382 19,800 -1,839 Descending Denver Center
Mon 08:52:26 PM 40.2064 -103.9203 266° West 310 357 18,000 -1,707 Descending Denver Center
Mon 08:53:27 PM 40.2192 -104.0325 279° West 316 364 16,300 -1,610 Descending Denver Center
Mon 08:54:29 PM 40.2283 -104.1419 276° West 306 352 14,700 -1,610 Descending Denver Center
Mon 08:55:30 PM 40.2394 -104.2589 277° West 301 346 13,000 -1,268 Descending Denver Center
Mon 08:56:32 PM 40.2483 -104.3619 276° West 291 335 12,100 -968 Descending Denver Center
Mon 08:57:34 PM 40.2550 -104.4608 275° West 260 299 11,000 -1,024 Descending Denver Center
Mon 08:58:35 PM 40.2394 -104.5467 257° West 255 293 10,000 -537 Descending Denver Center
Mon 08:59:37 PM 40.1817 -104.5864 208° Southwest 235 270 9,900 -48 Descending Denver Center
Mon 09:00:39 PM 40.1317 -104.6239 210° Southwest 193 222 9,900 -242 Level Denver Center
Mon 09:01:41 PM 40.0842 -104.6561 207° Southwest 192 221 9,400 -927 Descending Denver Center
Mon 09:02:42 PM 40.0317 -104.6789 198° South 187 215 8,000 -1,122 Descending Denver Center
Mon 09:03:44 PM 39.9858 -104.6853 186° South 167 192 7,100 -780 Descending Denver Center
Mon 09:04:45 PM 39.9489 -104.6858 181° South 136 157 6,400 -732 Descending Denver Center
Mon 09:05:47 PM 39.9083 -104.6864 181° South 134 154 5,600 -484 Descending Denver Center
Mon 09:06:49 PM 39.8775 -104.6869 181° South 129 148 5,400 -194 Descending Denver Center

Login

Don't have an account? Register now (free) for customized features, flight alerts, and more!